Allen, Argentina
Current Conditions -  °F | °C
As of 6:00 AM on Friday 28 Nov 2014 (Local Time) from SAZN Reporting Station
Clear Clear  
Wind Chill: 52°   Ceiling: Unl
Heat Index: 52°   Visibility: 6mi
Dew Point: 43°   Wind: 2mph
Humidity: 71%   Direction: 290°WNW
Pressure: 29.94"   Gusts: NA
Location:  38.97°S, 67.83°W
Report Text: SAZN 280900Z 29002KT CAVOK 11/06 Q1014
Loading
Personal Weather Stations






























Interactive Weather Map New forecast layout! Learn more

10-Day Weather Forecast

Advertisements
Track Severe Weather on mobile